Addison, Alabama
Current Conditions -  °F | °C
As of 9:55 PM on Sunday 23 Nov 2014 (Local Time) from KCMD Reporting Station
Overcast Overcast  
Wind Chill: 61°   Ceiling: 1700
Heat Index: 61°   Visibility: 10mi
Dew Point: 57°   Wind: 16mph
Humidity: 88%   Direction: 200°SSW
Pressure: 29.64"   Gusts: 22mph
Location:  34.2°N, 87.18°W
Report Text: KCMD 240355Z AUTO 20014G19KT 10SM BKN017 OVC024 16/14 A2964 RMK AO2 T01600140
Loading
Personal Weather Stations






























Interactive Weather Map New forecast layout! Learn more

10-Day Weather Forecast

Advertisements
Track Severe Weather on mobile